Time;durP1;ratioP1;P1;durP2;ratioP2;P2;SDS_P1;SDS_P2;PMS_P1;PMS_P2;Temp;Humidity;BMP_temperature;BMP_pressure;BME280_temperature;BME280_humidity;BME280_pressure;Samples;Min_cycle;Max_cycle;Signal;HPM_P1;HPM_P2
2023/01/23 00:01:54;;;;;;;;;;;;;;;;;;4467940;32;20173;-75
2023/01/23 00:04:19;;;;;;;25.50;14.90;;;;;;;;;;4454684;32;19932;-75
2023/01/23 00:06:45;;;;;;;;;;;;;;;;;;4438847;32;20190;-75
2023/01/23 00:09:10;;;;;;;36.40;17.20;;;;;;;;;;4437224;32;19933;-75
2023/01/23 00:11:35;;;;;;;;;;;;;;;;;;4453662;32;20029;-75
2023/01/23 00:14:01;;;;;;;25.12;15.68;;;;;;;;;;4453344;32;19970;-75
2023/01/23 00:16:26;;;;;;;;;;;;;;;;;;4451891;32;20195;-75
2023/01/23 00:18:52;;;;;;;33.78;18.73;;;;;;;;;;4437105;32;19991;-76
2023/01/23 00:21:17;;;;;;;;;;;;;;;;;;4451175;32;20117;-75
2023/01/23 00:23:47;;;;;;;28.38;15.80;;;;;;;;;;4452787;32;20345;-75
2023/01/23 00:26:14;;;;;;;29.37;15.43;;;;;;;;;;4451377;32;20478;-75
2023/01/23 00:28:40;;;;;;;28.65;17.70;;;;;;;;;;4451921;32;20052;-75
2023/01/23 00:31:05;;;;;;;;;;;;;;;;;;4452485;32;20022;-75
2023/01/23 00:33:30;;;;;;;25.85;15.65;;;;;;;;;;4451998;32;20286;-76
2023/01/23 00:35:55;;;;;;;;;;;;;;;;;;4452322;32;20136;-75
2023/01/23 00:38:21;;;;;;;28.23;16.15;;;;;;;;;;4454687;32;19961;-76
2023/01/23 00:40:46;;;;;;;24.37;15.63;;;;;;;;;;4454638;32;20048;-75
2023/01/23 00:43:11;;;;;;;;;;;;;;;;;;4455171;32;20088;-75
2023/01/23 00:45:37;;;;;;;33.60;18.17;;;;;;;;;;4454683;32;19944;-75
2023/01/23 00:48:02;;;;;;;;;;;;;;;;;;4454471;32;20184;-76
2023/01/23 00:50:27;;;;;;;27.83;16.67;;;;;;;;;;4440633;32;20314;-75
2023/01/23 00:52:52;;;;;;;;;;;;;;;;;;4454790;32;20200;-75
2023/01/23 00:55:17;;;;;;;26.98;16.08;;;;;;;;;;4440555;32;19944;-76
2023/01/23 00:57:42;;;;;;;;;;;;;;;;;;4440446;32;20580;-76
2023/01/23 01:00:08;;;;;;;35.85;17.42;;;;;;;;;;4440153;32;19969;-75
2023/01/23 01:02:33;;;;;;;;;;;;;;;;;;4454536;32;20197;-75
2023/01/23 01:04:58;;;;;;;31.10;17.87;;;;;;;;;;4456109;32;19967;-76
2023/01/23 01:07:23;;;;;;;;;;;;;;;;;;4440334;32;20620;-75
2023/01/23 01:09:49;;;;;;;31.42;17.98;;;;;;;;;;4453758;32;20026;-75
2023/01/23 01:12:14;;;;;;;;;;;;;;;;;;4438966;32;20026;-75
2023/01/23 01:14:39;;;;;;;32.00;16.52;;;;;;;;;;4438497;32;20315;-75
2023/01/23 01:17:05;;;;;;;32.92;18.52;;;;;;;;;;4439301;32;20022;-76
2023/01/23 01:19:31;;;;;;;30.65;18.55;;;;;;;;;;4439950;32;20354;-75
2023/01/23 01:21:56;;;;;;;;;;;;;;;;;;4441301;32;20076;-75
2023/01/23 01:24:21;;;;;;;36.10;19.60;;;;;;;;;;4447117;32;19965;-75
2023/01/23 01:26:46;;;;;;;;;;;;;;;;;;4443251;32;20094;-76
2023/01/23 01:29:11;;;;;;;28.77;17.83;;;;;;;;;;4446597;32;19943;-76
2023/01/23 01:31:36;;;;;;;;;;;;;;;;;;4440812;32;20060;-76
2023/01/23 01:34:02;;;;;;;33.85;18.77;;;;;;;;;;4453896;32;20298;-76
2023/01/23 01:36:27;;;;;;;36.78;18.40;;;;;;;;;;4455769;32;20048;-76
2023/01/23 01:38:52;;;;;;;;;;;;;;;;;;4455387;32;20050;-76
2023/01/23 01:41:17;;;;;;;31.87;18.42;;;;;;;;;;4454160;32;19937;-77
2023/01/23 01:43:42;;;;;;;;;;;;;;;;;;4454670;32;20215;-77
2023/01/23 01:46:18;;;;;;;33.67;17.95;;;;;;;;;;4455157;32;19941;-76
2023/01/23 01:48:50;;;;;;;35.38;19.17;;;;;;;;;;4453604;32;20226;-76
2023/01/23 01:51:21;;;;;;;30.50;20.12;;;;;;;;;;4454677;32;20056;-77
2023/01/23 01:53:47;;;;;;;36.42;21.20;;;;;;;;;;4454076;32;20029;-76
2023/01/23 01:56:13;;;;;;;42.28;21.50;;;;;;;;;;4455755;32;20052;-77
2023/01/23 01:58:38;;;;;;;;;;;;;;;;;;4453446;32;20041;-76
2023/01/23 02:01:03;;;;;;;37.00;19.45;;;;;;;;;;4452934;32;19959;-76
2023/01/23 02:03:28;;;;;;;;;;;;;;;;;;4453269;32;20178;-77
2023/01/23 02:05:54;;;;;;;36.03;19.02;;;;;;;;;;4439104;32;19972;-76
2023/01/23 02:08:19;;;;;;;;;;;;;;;;;;4439347;32;20578;-77
2023/01/23 02:10:44;;;;;;;39.63;18.27;;;;;;;;;;4453020;32;19971;-76
2023/01/23 02:13:16;;;;;;;35.67;19.60;;;;;;;;;;4454709;32;20036;-76
2023/01/23 02:15:41;;;;;;;37.90;21.05;;;;;;;;;;4453762;32;20034;-77
2023/01/23 02:18:06;;;;;;;;;;;;;;;;;;4440128;32;20025;-76
2023/01/23 02:20:31;;;;;;;40.12;20.05;;;;;;;;;;4460920;32;19937;-76
2023/01/23 02:22:56;;;;;;;;;;;;;;;;;;4449743;32;20150;-77
2023/01/23 02:25:22;;;;;;;33.33;19.30;;;;;;;;;;4462126;32;19952;-77
2023/01/23 02:27:47;;;;;;;36.20;19.60;;;;;;;;;;4444520;32;20025;-77
2023/01/23 02:30:14;;;;;;;42.20;19.20;;;;;;;;;;4438934;32;20013;-76
2023/01/23 02:32:39;;;;;;;44.88;20.12;;;;;;;;;;4439991;32;20076;-77
2023/01/23 02:35:04;;;;;;;;;;;;;;;;;;4453168;32;20403;-76
2023/01/23 02:37:33;;;;;;;37.38;19.67;;;;;;;;;;4452559;32;19933;-76
2023/01/23 02:39:58;;;;;;;41.22;21.55;;;;;;;;;;4452514;32;20578;-77
2023/01/23 02:42:24;;;;;;;;;;;;;;;;;;4453335;32;20064;-77
2023/01/23 02:44:52;;;;;;;35.97;19.23;;;;;;;;;;4454598;32;19947;-75
2023/01/23 02:47:17;;;;;;;46.05;22.90;;;;;;;;;;4456003;32;20051;-76
2023/01/23 02:49:43;;;;;;;;;;;;;;;;;;4458786;32;20025;-75
2023/01/23 02:52:08;;;;;;;33.90;20.20;;;;;;;;;;4456630;32;19929;-75
2023/01/23 02:54:34;;;;;;;40.12;20.62;;;;;;;;;;4465451;32;20103;-75
2023/01/23 02:56:59;;;;;;;;;;;;;;;;;;4452568;32;20065;-76
2023/01/23 03:02:08;;;;;;;36.50;20.17;;;;;;;;;;4452144;32;20047;-76
2023/01/23 03:04:34;;;;;;;;;;;;;;;;;;4451683;32;20057;-76
2023/01/23 03:06:59;;;;;;;44.15;21.00;;;;;;;;;;4451972;32;19947;-76
2023/01/23 03:09:24;;;;;;;;;;;;;;;;;;4452087;32;20124;-76
2023/01/23 03:11:49;;;;;;;34.38;18.17;;;;;;;;;;4451483;32;20361;-76
2023/01/23 03:14:14;;;;;;;;;;;;;;;;;;4437582;32;20124;-76
2023/01/23 03:16:41;;;;;;;45.45;20.80;;;;;;;;;;4451617;32;19975;-76
2023/01/23 03:19:07;;;;;;;36.55;19.60;;;;;;;;;;4451486;32;20082;-76
2023/01/23 03:21:33;;;;;;;46.72;21.87;;;;;;;;;;4451478;32;20082;-76
2023/01/23 03:24:01;;;;;;;35.92;21.17;;;;;;;;;;4452819;32;20096;-76
2023/01/23 03:26:26;;;;;;;36.13;21.83;;;;;;;;;;4437840;32;20063;-76
2023/01/23 03:31:35;;;;;;;40.50;20.58;;;;;;;;;;4452018;32;19981;-76
2023/01/23 03:34:00;;;;;;;;;;;;;;;;;;4452682;32;20395;-76
2023/01/23 03:36:25;;;;;;;42.16;21.90;;;;;;;;;;4452279;32;19942;-76
2023/01/23 03:41:37;;;;;;;38.13;21.25;;;;;;;;;;4453525;32;20333;-76
2023/01/23 03:44:02;;;;;;;33.75;21.65;;;;;;;;;;4437833;32;20060;-76
2023/01/23 03:46:27;;;;;;;;;;;;;;;;;;4438344;32;20029;-75
2023/01/23 03:48:52;;;;;;;40.60;21.73;;;;;;;;;;4437831;32;20280;-75
2023/01/23 03:51:17;;;;;;;;;;;;;;;;;;4451079;32;20188;-75
2023/01/23 03:53:43;;;;;;;41.03;21.30;;;;;;;;;;4452511;32;19932;-75
2023/01/23 03:56:08;;;;;;;;;;;;;;;;;;4452763;32;20155;-76
2023/01/23 03:58:33;;;;;;;42.03;21.87;;;;;;;;;;4437451;32;20374;-76
2023/01/23 04:01:02;;;;;;;;;;;;;;;;;;4437785;32;20121;-76
2023/01/23 04:03:27;;;;;;;31.52;20.52;;;;;;;;;;4451850;32;19936;-77
2023/01/23 04:05:52;;;;;;;;;;;;;;;;;;4454065;32;20060;-75
2023/01/23 04:08:17;;;;;;;44.08;21.17;;;;;;;;;;4451356;32;19980;-76
2023/01/23 04:10:42;;;;;;;;;;;;;;;;;;4453818;32;20116;-77
2023/01/23 04:13:07;;;;;;;43.36;21.84;;;;;;;;;;4452026;32;19947;-76
2023/01/23 04:15:32;;;;;;;;;;;;;;;;;;4455362;32;20044;-76
2023/01/23 04:17:58;;;;;;;39.33;21.00;;;;;;;;;;4468864;32;19927;-76
2023/01/23 04:20:23;;;;;;;;;;;;;;;;;;4464545;32;20441;-75
2023/01/23 04:22:48;;;;;;;40.50;23.65;;;;;;;;;;4452057;32;19951;-76
2023/01/23 04:25:13;;;;;;;;;;;;;;;;;;4451486;32;20563;-75
2023/01/23 04:27:38;;;;;;;36.78;21.62;;;;;;;;;;4437256;32;19966;-76
2023/01/23 04:30:03;;;;;;;;;;;;;;;;;;4453230;32;20151;-76
2023/01/23 04:32:28;;;;;;;56.53;23.27;;;;;;;;;;4451409;32;19941;-76
2023/01/23 04:34:54;;;;;;;;;;;;;;;;;;4452996;32;20176;-76
2023/01/23 04:37:19;;;;;;;42.70;20.77;;;;;;;;;;4450917;32;19941;-75
2023/01/23 04:39:44;;;;;;;;;;;;;;;;;;4451583;32;20195;-76
2023/01/23 04:42:09;;;;;;;43.78;21.35;;;;;;;;;;4437458;32;19936;-77
2023/01/23 04:44:34;;;;;;;;;;;;;;;;;;4451311;32;20124;-77
2023/01/23 04:46:59;;;;;;;42.05;22.45;;;;;;;;;;4450800;32;19932;-77
2023/01/23 04:49:24;;;;;;;;;;;;;;;;;;4450968;32;20136;-77
2023/01/23 04:51:50;;;;;;;49.10;22.50;;;;;;;;;;4436608;32;20283;-77
2023/01/23 04:54:15;;;;;;;;;;;;;;;;;;4437202;32;20357;-77
2023/01/23 04:56:40;;;;;;;39.05;22.13;;;;;;;;;;4451655;32;19940;-76
2023/01/23 04:59:06;;;;;;;;;;;;;;;;;;4451874;32;20140;-76
2023/01/23 05:01:31;;;;;;;41.00;23.65;;;;;;;;;;4453483;32;19946;-75
2023/01/23 05:03:56;;;;;;;;;;;;;;;;;;4440195;32;20181;-75
2023/01/23 05:06:21;;;;;;;40.60;22.30;;;;;;;;;;4439816;32;20317;-76
2023/01/23 05:08:46;;;;;;;;;;;;;;;;;;4452515;32;20144;-76
2023/01/23 05:11:12;;;;;;;45.50;23.45;;;;;;;;;;4452571;32;19950;-76
2023/01/23 05:13:37;;;;;;;;;;;;;;;;;;4452517;32;20190;-76
2023/01/23 05:16:02;;;;;;;45.58;21.98;;;;;;;;;;4451587;32;19947;-77
2023/01/23 05:18:27;;;;;;;;;;;;;;;;;;4451519;32;20116;-77
2023/01/23 05:20:52;;;;;;;40.65;23.87;;;;;;;;;;4437192;32;20314;-77
2023/01/23 05:23:17;;;;;;;;;;;;;;;;;;4453316;32;20199;-76
2023/01/23 05:25:43;;;;;;;50.35;26.20;;;;;;;;;;4454869;32;19959;-76
2023/01/23 05:28:08;;;;;;;;;;;;;;;;;;4457065;32;20142;-76
2023/01/23 05:30:34;;;;;;;39.05;22.65;;;;;;;;;;4456936;32;19944;-76
2023/01/23 05:32:59;;;;;;;;;;;;;;;;;;4441320;32;20120;-77
2023/01/23 05:35:24;;;;;;;47.58;24.65;;;;;;;;;;4441566;32;19975;-77
2023/01/23 05:37:50;;;;;;;;;;;;;;;;;;4456957;32;20143;-77
2023/01/23 05:40:15;;;;;;;44.83;23.08;;;;;;;;;;4448472;32;19983;-77
2023/01/23 05:42:40;;;;;;;42.33;23.75;;;;;;;;;;4462641;32;20064;-77
2023/01/23 05:45:05;;;;;;;;;;;;;;;;;;4471362;32;20446;-77
2023/01/23 05:47:30;;;;;;;40.55;21.55;;;;;;;;;;4464407;32;19936;-77
2023/01/23 05:49:55;;;;;;;;;;;;;;;;;;4454419;32;20128;-78
2023/01/23 05:52:21;;;;;;;44.10;23.36;;;;;;;;;;4439790;32;19976;-77
2023/01/23 05:54:46;;;;;;;;;;;;;;;;;;4441236;32;20044;-77
2023/01/23 05:57:11;;;;;;;43.22;23.45;;;;;;;;;;4455207;32;19937;-76
2023/01/23 05:59:36;;;;;;;;;;;;;;;;;;4455325;32;20119;-77
2023/01/23 06:02:01;;;;;;;53.55;26.08;;;;;;;;;;4453494;32;19940;-77
2023/01/23 06:04:26;;;;;;;;;;;;;;;;;;4454151;32;20387;-77
2023/01/23 06:06:52;;;;;;;48.40;25.15;;;;;;;;;;4453578;32;20242;-77
2023/01/23 06:09:17;;;;;;;;;;;;;;;;;;4453377;32;20119;-77
2023/01/23 06:11:42;;;;;;;46.72;24.63;;;;;;;;;;4438983;32;20269;-76
2023/01/23 06:14:07;;;;;;;;;;;;;;;;;;4453097;32;20025;-77
2023/01/23 06:16:32;;;;;;;45.46;22.78;;;;;;;;;;4439058;32;19936;-77
2023/01/23 06:18:57;;;;;;;;;;;;;;;;;;4453817;32;20048;-77
2023/01/23 06:21:22;;;;;;;44.60;24.87;;;;;;;;;;4453376;32;19940;-77
2023/01/23 06:23:48;;;;;;;;;;;;;;;;;;4439930;32;20128;-77
2023/01/23 06:26:13;;;;;;;39.40;24.15;;;;;;;;;;4454676;32;19932;-79
2023/01/23 06:28:38;;;;;;;;;;;;;;;;;;4453942;32;20117;-78
2023/01/23 06:31:05;;;;;;;53.08;25.75;;;;;;;;;;4455142;32;19947;-79
2023/01/23 06:33:30;;;;;;;45.03;26.05;;;;;;;;;;4454208;32;20129;-78
2023/01/23 06:35:55;;;;;;;;;;;;;;;;;;4453182;32;20026;-78
2023/01/23 06:38:21;;;;;;;42.62;25.08;;;;;;;;;;4454341;32;19976;-79
2023/01/23 06:40:46;;;;;;;;;;;;;;;;;;4453243;32;20021;-78
2023/01/23 06:43:11;;;;;;;41.37;25.67;;;;;;;;;;4454112;32;20039;-78
2023/01/23 06:45:36;;;;;;;;;;;;;;;;;;4453077;32;20112;-78
2023/01/23 06:48:01;;;;;;;43.58;24.65;;;;;;;;;;4453125;32;19969;-79
2023/01/23 06:50:26;;;;;;;;;;;;;;;;;;4454217;32;20132;-78
2023/01/23 06:52:51;;;;;;;50.50;26.55;;;;;;;;;;4454866;32;19936;-78
2023/01/23 06:55:17;;;;;;;45.38;25.23;;;;;;;;;;4454108;32;20021;-77
2023/01/23 06:57:42;;;;;;;52.58;24.52;;;;;;;;;;4455408;32;20097;-79
2023/01/23 07:00:08;;;;;;;;;;;;;;;;;;4454091;32;20022;-78
2023/01/23 07:02:33;;;;;;;47.72;26.50;;;;;;;;;;4452892;32;19956;-78
2023/01/23 07:04:58;;;;;;;48.90;28.08;;;;;;;;;;4456014;32;20054;-78
2023/01/23 07:07:23;;;;;;;57.47;25.50;;;;;;;;;;4458843;32;20111;-78
2023/01/23 07:09:48;;;;;;;;;;;;;;;;;;4448064;32;20021;-77
2023/01/23 07:12:14;;;;;;;50.86;24.50;;;;;;;;;;4451037;32;19969;-77
2023/01/23 07:14:39;;;;;;;;;;;;;;;;;;4461994;32;20017;-77
2023/01/23 07:17:04;;;;;;;46.94;25.34;;;;;;;;;;4449413;32;19952;-79
2023/01/23 07:19:29;;;;;;;;;;;;;;;;;;4429269;32;20056;-76
2023/01/23 07:21:54;;;;;;;46.03;26.65;;;;;;;;;;4441653;32;19990;-78
2023/01/23 07:24:19;;;;;;;;;;;;;;;;;;4438537;32;20152;-77
2023/01/23 07:26:45;;;;;;;50.38;24.52;;;;;;;;;;4441776;32;20043;-78
2023/01/23 07:29:10;;;;;;;;;;;;;;;;;;4434693;32;20141;-78
2023/01/23 07:31:35;;;;;;;48.17;26.37;;;;;;;;;;4436197;32;19932;-77
2023/01/23 07:34:00;;;;;;;;;;;;;;;;;;4437243;32;20017;-78
2023/01/23 07:36:26;;;;;;;42.83;24.92;;;;;;;;;;4437388;32;19986;-76
2023/01/23 07:38:51;;;;;;;;;;;;;;;;;;4437991;32;20075;-78
2023/01/23 07:41:16;;;;;;;41.90;24.55;;;;;;;;;;4437215;32;20365;-77
2023/01/23 07:43:42;;;;;;;51.78;27.55;;;;;;;;;;4446406;32;20096;-78
2023/01/23 07:46:08;;;;;;;;;;;;;;;;;;4451903;32;20021;-78
2023/01/23 07:48:34;;;;;;;49.78;27.95;;;;;;;;;;4439681;32;19942;-78
2023/01/23 07:51:01;;;;;;;50.45;29.60;;;;;;;;;;4438017;32;20332;-76
2023/01/23 07:53:26;;;;;;;50.28;27.98;;;;;;;;;;4451880;32;20041;-78
2023/01/23 07:55:51;;;;;;;;;;;;;;;;;;4439225;32;20064;-77
2023/01/23 07:58:16;;;;;;;41.10;25.42;;;;;;;;;;4438089;32;19947;-78
2023/01/23 08:00:41;;;;;;;;;;;;;;;;;;4452062;32;20117;-78
2023/01/23 08:03:07;;;;;;;48.00;29.37;;;;;;;;;;4453043;32;19968;-77
2023/01/23 08:05:32;;;;;;;62.45;31.33;;;;;;;;;;4452115;32;20025;-79
2023/01/23 08:07:57;;;;;;;;;;;;;;;;;;4453570;32;20053;-80
2023/01/23 08:10:22;;;;;;;51.22;27.92;;;;;;;;;;4437912;32;19984;-78
2023/01/23 08:12:47;;;;;;;;;;;;;;;;;;4453453;32;20116;-78
2023/01/23 08:15:12;;;;;;;49.88;28.08;;;;;;;;;;4437203;32;19944;-77
2023/01/23 08:17:38;;;;;;;;;;;;;;;;;;4452150;32;20196;-77
2023/01/23 08:20:03;;;;;;;46.95;26.10;;;;;;;;;;4451502;32;19973;-78
2023/01/23 08:22:28;;;;;;;43.42;25.48;;;;;;;;;;4451085;32;20394;-79
2023/01/23 08:24:54;;;;;;;;;;;;;;;;;;4453400;32;20425;-77
2023/01/23 08:27:19;;;;;;;46.37;25.50;;;;;;;;;;4452036;32;19937;-78
2023/01/23 08:29:44;;;;;;;;;;;;;;;;;;4452814;32;20513;-78
2023/01/23 08:32:09;;;;;;;52.80;25.58;;;;;;;;;;4452571;32;19943;-77
2023/01/23 08:34:34;;;;;;;;;;;;;;;;;;4440792;32;20192;-78
2023/01/23 08:36:59;;;;;;;45.63;25.67;;;;;;;;;;4452250;32;19936;-78
2023/01/23 08:39:24;;;;;;;;;;;;;;;;;;4447286;32;20112;-78
2023/01/23 08:41:50;;;;;;;45.40;25.40;;;;;;;;;;4445604;32;19975;-78
2023/01/23 08:44:15;;;;;;;;;;;;;;;;;;4439780;32;20124;-79
2023/01/23 08:46:41;;;;;;;51.95;29.20;;;;;;;;;;4436836;32;19941;-77
2023/01/23 08:49:07;;;;;;;42.78;24.37;;;;;;;;;;4436245;32;20162;-78
2023/01/23 08:51:32;;;;;;;;;;;;;;;;;;4435911;32;20419;-77
2023/01/23 08:53:57;;;;;;;42.20;25.08;;;;;;;;;;4435746;32;20007;-77
2023/01/23 08:56:22;;;;;;;;;;;;;;;;;;4436889;32;20112;-77
2023/01/23 08:58:48;;;;;;;47.33;25.37;;;;;;;;;;4436450;32;20335;-78
2023/01/23 09:01:13;;;;;;;;;;;;;;;;;;4441305;32;20237;-78
2023/01/23 09:03:38;;;;;;;40.53;23.95;;;;;;;;;;4438611;32;19977;-78
2023/01/23 09:06:04;;;;;;;;;;;;;;;;;;4438006;32;20156;-79
2023/01/23 09:08:30;;;;;;;42.40;23.95;;;;;;;;;;4438751;32;19945;-79
2023/01/23 09:11:05;;;;;;;42.58;25.98;;;;;;;;;;4424951;32;20025;-80
2023/01/23 09:13:31;;;;;;;51.50;26.67;;;;;;;;;;4425195;32;20026;-79
2023/01/23 09:15:57;;;;;;;38.67;23.90;;;;;;;;;;4439320;32;20026;-80
2023/01/23 09:18:23;;;;;;;;;;;;;;;;;;4425769;32;20065;-78
2023/01/23 09:20:49;;;;;;;40.95;23.67;;;;;;;;;;4439054;32;19947;-80
2023/01/23 09:23:14;;;;;;;;;;;;;;;;;;4424914;32;20135;-79
2023/01/23 09:25:39;;;;;;;38.08;23.38;;;;;;;;;;4439615;32;19947;-80
2023/01/23 09:28:04;;;;;;;;;;;;;;;;;;4440748;32;20474;-78
2023/01/23 09:30:29;;;;;;;40.55;22.80;;;;;;;;;;4440223;32;20355;-79
2023/01/23 09:32:55;;;;;;;;;;;;;;;;;;4428009;32;20051;-79
2023/01/23 09:35:22;;;;;;;41.92;22.65;;;;;;;;;;4442660;32;19945;-79
2023/01/23 09:37:59;;;;;;;32.05;20.25;;;;;;;;;;4426508;32;20167;-79
2023/01/23 09:40:29;;;;;;;34.75;21.92;;;;;;;;;;4440186;32;20068;-79
2023/01/23 09:42:57;;;;;;;31.98;21.83;;;;;;;;;;4439523;32;20065;-80
2023/01/23 09:45:23;;;;;;;35.53;21.27;;;;;;;;;;4424627;32;20350;-80
2023/01/23 09:47:52;;;;;;;41.30;23.50;;;;;;;;;;4425239;32;20033;-78
2023/01/23 09:50:22;;;;;;;45.38;25.55;;;;;;;;;;4424648;32;20370;-79
2023/01/23 09:52:48;;;;;;;40.58;23.38;;;;;;;;;;4438427;32;20025;-78
2023/01/23 09:55:16;;;;;;;40.58;23.80;;;;;;;;;;4438638;32;20056;-78
2023/01/23 09:57:51;;;;;;;34.63;22.05;;;;;;;;;;4425673;32;20050;-79
2023/01/23 10:00:30;;;;;;;41.37;25.17;;;;;;;;;;4438990;32;20097;-80
2023/01/23 10:02:56;;;;;;;32.53;22.27;;;;;;;;;;4454596;32;20144;-78
2023/01/23 10:05:21;;;;;;;;;;;;;;;;;;4447580;32;20452;-78
2023/01/23 10:08:01;;;;;;;35.72;22.67;;;;;;;;;;4439206;32;19937;-80
2023/01/23 10:10:44;;;;;;;38.83;22.65;;;;;;;;;;4453942;32;20457;-79
2023/01/23 10:13:15;;;;;;;40.42;22.05;;;;;;;;;;4439527;32;20055;-80
2023/01/23 10:15:49;;;;;;;32.70;22.08;;;;;;;;;;4439384;32;20029;-80
2023/01/23 10:18:23;;;;;;;40.65;22.87;;;;;;;;;;4439080;32;20449;-79
2023/01/23 10:21:06;;;;;;;34.65;21.65;;;;;;;;;;4454012;32;20025;-79
2023/01/23 10:23:53;;;;;;;35.35;21.98;;;;;;;;;;4438852;32;20400;-79
2023/01/23 10:26:20;;;;;;;34.87;23.53;;;;;;;;;;4439709;32;20021;-79
2023/01/23 10:28:46;;;;;;;34.53;20.67;;;;;;;;;;4453084;32;20471;-78
2023/01/23 10:31:11;;;;;;;;;;;;;;;;;;4454299;32;20047;-79
2023/01/23 10:33:41;;;;;;;37.25;23.23;;;;;;;;;;4454028;32;19933;-80
2023/01/23 10:36:14;;;;;;;34.33;23.02;;;;;;;;;;4455126;32;20021;-79
2023/01/23 10:38:45;;;;;;;30.25;21.75;;;;;;;;;;4455437;32;20037;-79
2023/01/23 10:41:14;;;;;;;36.75;22.75;;;;;;;;;;4454356;32;20360;-77
2023/01/23 10:43:41;;;;;;;36.80;22.95;;;;;;;;;;4439037;32;20070;-80
2023/01/23 10:46:17;;;;;;;34.95;20.00;;;;;;;;;;4453572;32;20451;-79
2023/01/23 10:48:44;;;;;;;37.95;23.12;;;;;;;;;;4439528;32;20025;-79
2023/01/23 10:51:28;;;;;;;31.73;21.48;;;;;;;;;;4453303;32;20037;-78
2023/01/23 10:54:03;;;;;;;29.33;21.00;;;;;;;;;;4453432;32;20022;-78
2023/01/23 10:56:30;;;;;;;29.40;19.62;;;;;;;;;;4453334;32;20017;-78
2023/01/23 10:58:55;;;;;;;32.45;19.52;;;;;;;;;;4453249;32;20495;-78
2023/01/23 11:01:20;;;;;;;;;;;;;;;;;;4454472;32;20021;-78
2023/01/23 11:03:45;;;;;;;33.50;20.67;;;;;;;;;;4453386;32;19973;-78
2023/01/23 11:06:10;;;;;;;;;;;;;;;;;;4439702;32;20121;-78
2023/01/23 11:08:37;;;;;;;34.55;21.25;;;;;;;;;;4438542;32;19996;-78
2023/01/23 11:11:14;;;;;;;31.87;21.90;;;;;;;;;;4453155;32;20207;-78
2023/01/23 11:13:40;;;;;;;32.85;20.37;;;;;;;;;;4452128;32;20026;-79
2023/01/23 11:16:05;;;;;;;;;;;;;;;;;;4454201;32;20043;-80
2023/01/23 11:18:32;;;;;;;28.17;18.10;;;;;;;;;;4438765;32;19937;-80
2023/01/23 11:20:58;;;;;;;27.77;19.42;;;;;;;;;;4452473;32;20116;-79
2023/01/23 11:23:23;;;;;;;;;;;;;;;;;;4441003;32;20078;-80
2023/01/23 11:25:49;;;;;;;25.10;16.67;;;;;;;;;;4458584;32;19969;-78
2023/01/23 11:28:24;;;;;;;26.70;17.00;;;;;;;;;;4456501;32;20161;-80
2023/01/23 11:30:51;;;;;;;25.37;17.25;;;;;;;;;;4459481;32;20025;-79
2023/01/23 11:33:35;;;;;;;24.37;17.33;;;;;;;;;;4454372;32;20030;-80
2023/01/23 11:36:03;;;;;;;26.62;18.30;;;;;;;;;;4452872;32;20059;-80
2023/01/23 11:38:34;;;;;;;27.15;18.83;;;;;;;;;;4439747;32;20444;-79
2023/01/23 11:40:59;;;;;;;25.77;16.87;;;;;;;;;;4453711;32;20435;-80
2023/01/23 11:43:24;;;;;;;;;;;;;;;;;;4455649;32;20064;-80
2023/01/23 11:45:53;;;;;;;23.42;17.15;;;;;;;;;;4462168;32;19948;-79
2023/01/23 11:48:18;;;;;;;28.60;19.20;;;;;;;;;;4462533;32;20115;-79
2023/01/23 11:50:43;;;;;;;;;;;;;;;;;;4445723;32;20502;-79
2023/01/23 11:53:18;;;;;;;25.62;15.65;;;;;;;;;;4460060;32;19947;-78
2023/01/23 11:55:46;;;;;;;22.65;16.70;;;;;;;;;;4457229;32;20116;-80
2023/01/23 11:58:15;;;;;;;22.60;17.25;;;;;;;;;;4437931;32;20029;-79
2023/01/23 12:00:46;;;;;;;20.08;14.50;;;;;;;;;;4439618;32;20033;-80
2023/01/23 12:03:17;;;;;;;21.00;15.75;;;;;;;;;;4453088;32;20086;-79
2023/01/23 12:05:42;;;;;;;20.08;14.63;;;;;;;;;;4440709;32;20025;-81
2023/01/23 12:08:07;;;;;;;;;;;;;;;;;;4454020;32;20017;-80
2023/01/23 12:10:51;;;;;;;19.87;14.10;;;;;;;;;;4452298;32;19932;-79
2023/01/23 12:13:35;;;;;;;22.20;14.68;;;;;;;;;;4451753;32;20113;-78
2023/01/23 12:16:12;;;;;;;21.00;14.95;;;;;;;;;;4437486;32;20110;-79
2023/01/23 12:18:53;;;;;;;18.75;14.90;;;;;;;;;;4437526;32;20369;-79
2023/01/23 12:21:30;;;;;;;20.67;14.23;;;;;;;;;;4451937;32;20029;-80
2023/01/23 12:24:02;;;;;;;19.02;14.07;;;;;;;;;;4438529;32;20346;-79
2023/01/23 12:26:28;;;;;;;18.27;13.85;;;;;;;;;;4452601;32;20036;-78
2023/01/23 12:28:53;;;;;;;;;;;;;;;;;;4452252;32;20077;-79
2023/01/23 12:31:18;;;;;;;20.55;14.73;;;;;;;;;;4452461;32;19936;-79
2023/01/23 12:33:44;;;;;;;;;;;;;;;;;;4438481;32;20204;-79
2023/01/23 12:36:12;;;;;;;18.83;12.75;;;;;;;;;;4451851;32;19937;-79
2023/01/23 12:38:48;;;;;;;18.50;13.20;;;;;;;;;;4438717;32;20022;-78
2023/01/23 12:41:27;;;;;;;20.48;14.15;;;;;;;;;;4438141;32;20021;-78
2023/01/23 12:43:56;;;;;;;17.17;12.63;;;;;;;;;;4438439;32;20037;-79
2023/01/23 12:46:25;;;;;;;20.50;14.73;;;;;;;;;;4443289;32;20022;-78
2023/01/23 12:48:55;;;;;;;18.55;12.80;;;;;;;;;;4467155;32;20049;-79
2023/01/23 12:51:29;;;;;;;20.83;14.35;;;;;;;;;;4440428;32;20033;-79
2023/01/23 12:53:57;;;;;;;22.35;15.85;;;;;;;;;;4436892;32;20466;-78
2023/01/23 12:56:24;;;;;;;24.33;15.30;;;;;;;;;;4438081;32;20093;-79
2023/01/23 12:59:12;;;;;;;24.70;15.65;;;;;;;;;;4435933;32;20066;-79
2023/01/23 13:01:57;;;;;;;27.60;18.35;;;;;;;;;;4434272;32;20108;-80
2023/01/23 13:04:31;;;;;;;43.05;21.83;;;;;;;;;;4436250;32;20055;-80
2023/01/23 13:07:02;;;;;;;31.55;16.55;;;;;;;;;;4436962;32;20445;-79
2023/01/23 13:09:27;;;;;;;26.58;16.33;;;;;;;;;;4435948;32;20026;-79
2023/01/23 13:11:52;;;;;;;;;;;;;;;;;;4435334;32;20070;-80
2023/01/23 13:14:30;;;;;;;23.27;13.75;;;;;;;;;;4435258;32;19948;-81
2023/01/23 13:17:01;;;;;;;24.92;12.23;;;;;;;;;;4435694;32;20152;-78
2023/01/23 13:22:11;;;;;;;16.42;12.95;;;;;;;;;;4436831;32;20067;-79
2023/01/23 13:27:36;;;;;;;19.98;12.80;;;;;;;;;;4436791;32;19931;-80
2023/01/23 13:30:03;;;;;;;19.27;12.37;;;;;;;;;;4436341;32;20038;-79
2023/01/23 13:32:28;;;;;;;25.42;11.38;;;;;;;;;;4434453;32;20052;-79
2023/01/23 13:34:53;;;;;;;;;;;;;;;;;;4434600;32;20021;-79
2023/01/23 13:37:27;;;;;;;21.86;10.56;;;;;;;;;;4437523;32;19941;-79
2023/01/23 13:40:12;;;;;;;14.50;9.60;;;;;;;;;;4436796;32;20052;-79
2023/01/23 13:42:37;;;;;;;15.45;9.27;;;;;;;;;;4435683;32;20097;-79
2023/01/23 13:45:02;;;;;;;;;;;;;;;;;;4436124;32;20021;-79
2023/01/23 13:50:33;;;;;;;12.37;10.25;;;;;;;;;;4441770;32;20359;-78
2023/01/23 13:58:34;;;;;;;17.02;11.20;;;;;;;;;;4454440;32;20081;-78
2023/01/23 14:06:35;;;;;;;16.73;10.35;;;;;;;;;;4462850;32;20052;-77
2023/01/23 14:09:01;;;;;;;17.83;12.55;;;;;;;;;;4460707;32;20044;-77
2023/01/23 14:11:45;;;;;;;23.40;13.27;;;;;;;;;;4454747;32;20029;-78
2023/01/23 14:16:56;;;;;;;16.70;12.30;;;;;;;;;;4414120;32;20064;-79
2023/01/23 14:19:21;;;;;;;;;;;;;;;;;;4440174;32;20030;-78
2023/01/23 14:21:56;;;;;;;15.92;12.84;;;;;;;;;;4437982;32;19959;-77
2023/01/23 14:24:27;;;;;;;20.80;15.18;;;;;;;;;;4439329;32;20013;-77
2023/01/23 14:26:58;;;;;;;20.00;14.75;;;;;;;;;;4438620;32;20390;-78
2023/01/23 14:29:24;;;;;;;16.85;11.20;;;;;;;;;;4424129;32;20089;-78
2023/01/23 14:31:52;;;;;;;;;;;;;;;;;;4439827;32;20420;-77
2023/01/23 14:34:19;;;;;;;17.98;13.18;;;;;;;;;;4438395;32;19937;-77
2023/01/23 14:36:46;;;;;;;16.35;11.25;;;;;;;;;;4436347;32;20014;-77
2023/01/23 14:39:16;;;;;;;14.10;9.88;;;;;;;;;;4437782;32;20021;-80
2023/01/23 14:41:42;;;;;;;16.10;11.55;;;;;;;;;;4437675;32;20048;-77
2023/01/23 14:44:07;;;;;;;;;;;;;;;;;;4448330;32;20022;-76
2023/01/23 14:46:32;;;;;;;14.73;11.32;;;;;;;;;;4452383;32;20350;-78
2023/01/23 14:48:57;;;;;;;16.87;12.45;;;;;;;;;;4452840;32;20124;-77
2023/01/23 14:51:23;;;;;;;;;;;;;;;;;;4440653;32;20082;-77
2023/01/23 14:53:54;;;;;;;14.05;10.00;;;;;;;;;;4455634;32;19932;-77
2023/01/23 14:56:20;;;;;;;16.73;12.35;;;;;;;;;;4455342;32;20029;-77
2023/01/23 14:58:45;;;;;;;;;;;;;;;;;;4442903;32;20128;-78
2023/01/23 15:01:10;;;;;;;15.32;10.48;;;;;;;;;;4455207;32;19994;-77
2023/01/23 15:03:36;;;;;;;;;;;;;;;;;;4440674;32;20396;-76
2023/01/23 15:06:02;;;;;;;15.23;10.93;;;;;;;;;;4448232;32;20310;-77
2023/01/23 15:08:31;;;;;;;17.05;12.77;;;;;;;;;;4439866;32;20147;-78
2023/01/23 15:10:59;;;;;;;18.55;12.30;;;;;;;;;;4448482;32;20041;-78
2023/01/23 15:13:28;;;;;;;19.35;12.55;;;;;;;;;;4453783;32;20021;-79
2023/01/23 15:16:01;;;;;;;18.15;11.35;;;;;;;;;;4433804;32;20343;-78
2023/01/23 15:18:27;;;;;;;17.30;12.82;;;;;;;;;;4427418;32;20146;-77
2023/01/23 15:20:57;;;;;;;21.45;13.50;;;;;;;;;;4428236;32;20041;-76
2023/01/23 15:23:36;;;;;;;18.33;14.23;;;;;;;;;;4448935;32;20048;-76
2023/01/23 15:26:07;;;;;;;18.42;14.32;;;;;;;;;;4448041;32;20073;-78
2023/01/23 15:28:38;;;;;;;18.17;13.00;;;;;;;;;;4447237;32;20048;-77
2023/01/23 15:31:04;;;;;;;22.87;14.48;;;;;;;;;;4439115;32;20030;-76